createdAt,value
2019-06-08T00:02:30.798Z,56.34
2019-06-08T00:06:32.679Z,56.06
2019-06-08T00:10:34.469Z,56.06
2019-06-08T00:14:36.229Z,56.72
2019-06-08T00:18:37.970Z,56.15
2019-06-08T00:22:39.719Z,56.66
2019-06-08T00:26:41.479Z,56.58
2019-06-08T00:30:43.228Z,57.19
2019-06-08T00:34:44.944Z,56.61
2019-06-08T00:38:46.697Z,56.92
2019-06-08T00:42:48.464Z,56.96
2019-06-08T00:46:50.228Z,56.93
2019-06-08T00:50:52.305Z,57.61
2019-06-08T00:54:54.077Z,57.28
2019-06-08T00:58:55.829Z,53.70
2019-06-08T01:02:57.806Z,54.78
2019-06-08T01:06:59.556Z,53.63
2019-06-08T01:11:01.454Z,51.58
2019-06-08T01:15:04.290Z,52.31
2019-06-08T01:19:06.187Z,51.74
2019-06-08T01:23:08.088Z,51.00
2019-06-08T01:27:09.860Z,48.46
2019-06-08T01:31:11.653Z,50.05
2019-06-08T01:35:13.448Z,50.66
2019-06-08T01:39:15.200Z,51.07
2019-06-08T01:43:16.975Z,51.06
2019-06-08T01:47:18.728Z,52.07
2019-06-08T01:51:20.557Z,52.28
2019-06-08T01:55:22.996Z,52.70
2019-06-08T01:59:25.289Z,53.17
2019-06-08T02:03:28.171Z,52.51
2019-06-08T02:07:30.418Z,52.59
2019-06-08T02:11:33.037Z,51.99
2019-06-08T02:15:35.369Z,52.47
2019-06-08T02:19:37.296Z,51.16
2019-06-08T02:23:39.728Z,52.41
2019-06-08T02:27:41.570Z,52.42
2019-06-08T02:31:43.318Z,53.11
2019-06-08T02:35:45.066Z,52.91
2019-06-08T02:39:46.909Z,52.67
2019-06-08T02:43:48.669Z,53.28
2019-06-08T02:47:50.433Z,53.17
2019-06-08T02:51:52.474Z,53.44
2019-06-08T02:55:54.411Z,53.14
2019-06-08T02:59:59.956Z,52.83
2019-06-08T03:04:01.836Z,52.47
2019-06-08T03:08:04.434Z,52.36
2019-06-08T03:12:06.134Z,52.77
2019-06-08T03:16:07.875Z,53.31
2019-06-08T03:20:10.444Z,52.40
2019-06-08T03:24:12.189Z,51.90
2019-06-08T03:28:14.304Z,52.08
2019-06-08T03:32:16.101Z,51.67
2019-06-08T03:36:17.852Z,51.64
2019-06-08T03:40:19.586Z,51.75
2019-06-08T03:44:21.327Z,51.17
2019-06-08T03:48:23.085Z,51.90
2019-06-08T03:52:24.791Z,52.31
2019-06-08T03:56:26.547Z,52.13
2019-06-08T04:00:28.295Z,52.38
2019-06-08T04:04:30.055Z,52.25
2019-06-08T04:08:32.094Z,52.26
2019-06-08T04:12:33.933Z,52.25
2019-06-08T04:16:35.679Z,52.59
2019-06-08T04:20:38.024Z,53.17
2019-06-08T04:24:40.231Z,52.92
2019-06-08T04:28:42.528Z,52.88
2019-06-08T04:32:45.005Z,53.31
2019-06-08T04:36:48.573Z,53.20
2019-06-08T04:40:51.022Z,53.39
2019-06-08T04:44:52.756Z,53.29
2019-06-08T04:48:54.760Z,54.09
2019-06-08T04:52:56.501Z,52.76
2019-06-08T04:56:58.252Z,53.77
2019-06-08T05:00:59.993Z,53.53
2019-06-08T05:05:01.798Z,53.16
2019-06-08T05:09:05.513Z,53.01
2019-06-08T05:13:07.249Z,53.11
2019-06-08T05:17:08.995Z,52.73
2019-06-08T05:21:10.779Z,50.67
2019-06-08T05:25:12.720Z,51.90
2019-06-08T05:29:14.438Z,52.00
2019-06-08T05:33:16.192Z,52.47
2019-06-08T05:37:17.945Z,51.84
2019-06-08T05:41:19.731Z,51.39
2019-06-08T05:45:21.955Z,51.33
2019-06-08T05:49:23.688Z,51.13
2019-06-08T05:53:25.436Z,51.84
2019-06-08T05:57:27.188Z,51.50
2019-06-08T06:01:29.315Z,50.48
2019-06-08T06:05:31.051Z,50.74
2019-06-08T06:09:32.809Z,51.46
2019-06-08T06:13:34.574Z,51.67
2019-06-08T06:17:36.312Z,51.37
2019-06-08T06:21:38.340Z,51.33
2019-06-08T06:25:41.305Z,51.54
2019-06-08T06:29:43.568Z,50.62
2019-06-08T06:33:45.956Z,51.87
2019-06-08T06:37:47.959Z,51.81
2019-06-08T06:41:50.004Z,52.50
2019-06-08T06:45:52.208Z,52.53
2019-06-08T06:49:54.118Z,52.71
2019-06-08T06:53:55.871Z,51.84
2019-06-08T06:57:57.617Z,52.47
2019-06-08T07:01:59.432Z,51.01
2019-06-08T07:06:01.160Z,51.36
2019-06-08T07:10:04.134Z,51.38
2019-06-08T07:14:05.885Z,52.16
2019-06-08T07:18:07.639Z,52.00
2019-06-08T07:22:09.352Z,51.97
2019-06-08T07:26:11.147Z,51.07
2019-06-08T07:30:13.012Z,49.98
2019-06-08T07:34:15.141Z,51.17
2019-06-08T07:38:17.244Z,51.05
2019-06-08T07:42:19.308Z,51.36
2019-06-08T07:46:40.629Z,51.02
2019-06-08T07:50:42.741Z,51.06
2019-06-08T07:54:44.539Z,50.56
2019-06-08T07:58:46.431Z,49.69
2019-06-08T08:02:48.204Z,49.68
2019-06-08T08:06:50.369Z,49.01
2019-06-08T08:10:52.396Z,48.78
2019-06-08T08:14:55.422Z,48.02
2019-06-08T08:18:57.588Z,49.70
2019-06-08T08:23:05.542Z,48.79
2019-06-08T08:27:03.845Z,48.88
2019-06-08T08:31:07.831Z,50.12
2019-06-08T08:35:10.488Z,49.28
2019-06-08T08:39:12.261Z,48.46
2019-06-08T08:43:14.355Z,48.58
2019-06-08T08:47:18.529Z,48.00
2019-06-08T08:51:20.641Z,49.34
2019-06-08T08:55:22.559Z,48.43
2019-06-08T08:59:24.321Z,47.54
2019-06-08T09:03:30.922Z,48.16
2019-06-08T09:07:29.764Z,48.91
2019-06-08T09:11:31.526Z,48.45
2019-06-08T09:15:33.290Z,50.78
2019-06-08T09:19:35.077Z,49.96
2019-06-08T09:23:37.805Z,50.22
2019-06-08T09:27:39.778Z,48.99
2019-06-08T09:31:41.520Z,49.66
2019-06-08T09:35:43.269Z,48.60
2019-06-08T09:39:45.363Z,47.33
2019-06-08T09:43:48.741Z,48.65
2019-06-08T09:47:50.654Z,45.81
2019-06-08T09:51:53.834Z,48.05
2019-06-08T09:55:57.599Z,45.81
2019-06-08T10:00:02.582Z,47.05
2019-06-08T10:04:05.863Z,45.95
2019-06-08T10:08:09.462Z,44.91
2019-06-08T10:12:10.776Z,46.28
2019-06-08T10:16:12.644Z,46.52
2019-06-08T10:20:18.120Z,46.40
2019-06-08T10:24:19.288Z,46.18
2019-06-08T10:28:21.890Z,46.72
2019-06-08T10:32:23.776Z,49.25
2019-06-08T10:36:28.165Z,45.72
2019-06-08T10:40:29.160Z,47.24
2019-06-08T10:44:30.903Z,45.63
2019-06-08T10:48:32.652Z,45.63
2019-06-08T10:52:34.474Z,47.63
2019-06-08T10:56:38.528Z,46.17
2019-06-08T11:00:39.965Z,45.78
2019-06-08T11:04:43.426Z,45.97
2019-06-08T11:08:45.311Z,45.87
2019-06-08T11:12:48.519Z,45.53
2019-06-08T11:16:50.550Z,47.98
2019-06-08T11:20:52.271Z,45.83
2019-06-08T11:24:54.012Z,45.27
2019-06-08T11:28:58.372Z,47.27
2019-06-08T11:32:59.896Z,46.71
2019-06-08T11:37:03.606Z,45.35
2019-06-08T11:41:07.797Z,45.25
2019-06-08T11:45:12.507Z,44.42
2019-06-08T11:49:15.023Z,44.52
2019-06-08T11:53:18.114Z,44.99
2019-06-08T11:57:21.315Z,44.09
2019-06-08T12:01:23.032Z,44.09
2019-06-08T12:05:24.833Z,45.77
2019-06-08T12:09:28.664Z,44.91
2019-06-08T12:13:30.427Z,44.25
2019-06-08T12:17:32.164Z,44.26
2019-06-08T12:21:33.906Z,42.59
2019-06-08T12:25:37.748Z,43.88
2019-06-08T12:29:39.384Z,42.30
2019-06-08T12:33:41.447Z,42.63
2019-06-08T12:37:43.175Z,43.28
2019-06-08T12:41:44.960Z,44.37
2019-06-08T12:45:46.733Z,45.27
2019-06-08T12:49:48.562Z,44.47
2019-06-08T12:53:50.282Z,44.32
2019-06-08T12:57:52.011Z,43.73
2019-06-08T13:01:53.822Z,46.32
2019-06-08T13:05:57.489Z,45.03
2019-06-08T13:09:59.252Z,44.31
2019-06-08T13:14:01.024Z,44.73
2019-06-08T13:18:02.760Z,43.17
2019-06-08T13:22:04.580Z,42.87
2019-06-08T13:26:06.367Z,45.50
2019-06-08T13:30:09.560Z,42.98
2019-06-08T13:34:14.201Z,43.79
2019-06-08T13:38:16.741Z,41.90
2019-06-08T13:42:21.881Z,41.79
2019-06-08T13:46:23.686Z,42.60
2019-06-08T13:50:25.567Z,40.99
2019-06-08T13:54:30.857Z,42.91
2019-06-08T13:58:33.300Z,42.62
2019-06-08T14:02:34.867Z,41.88
2019-06-08T14:06:36.584Z,42.00
2019-06-08T14:10:39.042Z,41.49
2019-06-08T14:14:40.750Z,41.94
2019-06-08T14:18:42.492Z,42.81
2019-06-08T14:22:44.235Z,41.94
2019-06-08T14:26:45.985Z,41.73
2019-06-08T14:30:48.020Z,43.23
2019-06-08T14:34:50.277Z,41.03
2019-06-08T14:38:52.520Z,42.57
2019-06-08T14:42:54.291Z,44.10
2019-06-08T14:46:57.904Z,44.78
2019-06-08T14:50:59.691Z,42.41
2019-06-08T14:55:01.414Z,41.71
2019-06-08T14:59:03.169Z,42.23
2019-06-08T15:03:07.508Z,50.99
2019-06-08T15:07:09.635Z,62.66
2019-06-08T15:11:11.572Z,66.23
2019-06-08T15:15:13.700Z,66.74
2019-06-08T15:19:18.319Z,68.12
2019-06-08T15:23:21.509Z,68.25
2019-06-08T15:27:24.763Z,65.54
2019-06-08T15:31:29.521Z,63.33
2019-06-08T15:35:31.387Z,62.67
2019-06-08T15:39:34.192Z,62.22
2019-06-08T15:43:37.660Z,64.26
2019-06-08T15:47:40.884Z,63.21
2019-06-08T15:51:42.985Z,61.42
2019-06-08T15:55:45.048Z,55.52
2019-06-08T15:59:49.054Z,56.03
2019-06-08T16:03:50.468Z,53.54
2019-06-08T16:07:52.332Z,53.99
2019-06-08T16:11:54.133Z,53.99
2019-06-08T16:15:56.288Z,49.38
2019-06-08T16:19:58.027Z,52.11
2019-06-08T16:24:00.092Z,49.99
2019-06-08T16:28:02.326Z,48.62
2019-06-08T16:32:04.339Z,47.94
2019-06-08T16:36:06.080Z,46.71
2019-06-08T16:40:07.927Z,49.33
2019-06-08T16:44:09.676Z,47.61
2019-06-08T16:48:11.418Z,48.05
2019-06-08T16:52:13.131Z,46.96
2019-06-08T16:56:14.913Z,46.60
2019-06-08T17:00:30.665Z,47.69
2019-06-08T17:04:20.903Z,47.33
2019-06-08T17:08:22.661Z,46.26
2019-06-08T17:12:24.374Z,47.25
2019-06-08T17:16:26.115Z,47.58
2019-06-08T17:20:28.231Z,48.22
2019-06-08T17:24:30.348Z,49.88
2019-06-08T17:28:33.210Z,49.56
2019-06-08T17:32:35.874Z,50.25
2019-06-08T17:36:38.601Z,53.22
2019-06-08T17:40:42.407Z,57.58
2019-06-08T17:44:44.311Z,59.71
2019-06-08T17:48:46.325Z,60.70
2019-06-08T17:52:48.060Z,63.41
2019-06-08T17:56:49.809Z,59.88
2019-06-08T18:00:51.552Z,57.62
2019-06-08T18:04:53.330Z,57.58
2019-06-08T18:08:55.048Z,57.28
2019-06-08T18:12:58.757Z,57.07
2019-06-08T18:17:00.709Z,57.64
2019-06-08T18:21:02.847Z,58.61
2019-06-08T18:25:07.590Z,59.80
2019-06-08T18:29:08.850Z,60.31
2019-06-08T18:33:10.911Z,61.64
2019-06-08T18:37:12.859Z,62.58
2019-06-08T18:41:14.607Z,60.85
2019-06-08T18:45:18.155Z,60.93
2019-06-08T18:49:20.446Z,60.73
2019-06-08T18:53:22.663Z,60.90
2019-06-08T18:57:24.426Z,60.46
2019-06-08T19:01:27.514Z,59.92
2019-06-08T19:05:30.115Z,60.28
2019-06-08T19:09:32.638Z,59.66
2019-06-08T19:13:34.401Z,59.14
2019-06-08T19:17:39.846Z,60.49
2019-06-08T19:21:40.807Z,59.41
2019-06-08T19:25:45.834Z,60.05
2019-06-08T19:29:49.167Z,60.80
2019-06-08T19:33:53.316Z,61.04
2019-06-08T19:37:54.192Z,61.35
2019-06-08T19:41:57.262Z,61.00
2019-06-08T19:45:59.576Z,61.39
2019-06-08T19:50:01.398Z,61.77
2019-06-08T19:54:03.166Z,62.10
2019-06-08T19:58:04.931Z,62.36
2019-06-08T20:02:08.656Z,63.07
2019-06-08T20:06:10.356Z,62.66
2019-06-08T20:10:12.319Z,63.60
2019-06-08T20:14:14.087Z,63.44
2019-06-08T20:18:17.216Z,63.72
2019-06-08T20:22:19.074Z,64.17
2019-06-08T20:26:20.824Z,64.87
2019-06-08T20:30:22.571Z,64.12
2019-06-08T20:34:26.707Z,64.91
2019-06-08T20:38:37.715Z,65.38
2019-06-08T20:42:32.046Z,64.92
2019-06-08T20:46:34.093Z,65.02
2019-06-08T20:50:37.795Z,65.25
2019-06-08T20:54:39.793Z,64.75
2019-06-08T20:58:41.549Z,65.38
2019-06-08T21:02:43.922Z,65.36
2019-06-08T21:06:48.280Z,65.98
2019-06-08T21:10:52.300Z,66.04
2019-06-08T21:14:54.215Z,66.70
2019-06-08T21:18:57.975Z,66.49
2019-06-08T21:23:00.307Z,67.12
2019-06-08T21:27:02.829Z,67.50
2019-06-08T21:31:04.779Z,67.86
2019-06-08T21:35:07.631Z,68.00
2019-06-08T21:39:09.530Z,68.33
2019-06-08T21:43:11.258Z,68.41
2019-06-08T21:47:13.016Z,68.00
2019-06-08T21:51:14.795Z,68.33
2019-06-08T21:55:17.764Z,68.55
2019-06-08T21:59:19.998Z,68.74
2019-06-08T22:03:21.780Z,68.98
2019-06-08T22:07:23.522Z,68.82
2019-06-08T22:11:25.298Z,69.03
2019-06-08T22:15:27.336Z,68.78
2019-06-08T22:19:29.384Z,69.27
2019-06-08T22:23:31.182Z,69.45
2019-06-08T22:27:32.958Z,69.58
2019-06-08T22:31:37.043Z,69.99
2019-06-08T22:35:38.500Z,70.20
2019-06-08T22:39:40.264Z,69.83
2019-06-08T22:43:42.159Z,69.82
2019-06-08T22:47:43.942Z,70.55
2019-06-08T22:51:47.747Z,70.19
2019-06-08T22:55:49.400Z,69.66
2019-06-08T22:59:51.776Z,70.18
2019-06-08T23:03:53.682Z,70.16
2019-06-08T23:07:59.853Z,69.86
2019-06-08T23:12:03.024Z,70.24
2019-06-08T23:16:05.692Z,69.83
2019-06-08T23:20:08.802Z,70.16
2019-06-08T23:24:10.699Z,70.41
2019-06-08T23:28:12.464Z,70.41
2019-06-08T23:32:14.255Z,70.16
2019-06-08T23:36:44.973Z,70.43
2019-06-08T23:40:19.685Z,70.43
2019-06-08T23:44:21.460Z,70.40
2019-06-08T23:48:23.225Z,70.35
2019-06-08T23:52:27.206Z,70.39
2019-06-08T23:56:28.603Z,70.53
